Anna G — 5BNB4 — position and weather

sailwx.info

Track history (hours):
 
Tides and Currents Weather Stations Pressure Air Temp Water Temp Dewpoint Dewpoint Depression Visibility Wind Speed Wind Dir Waves Ship Positions

Anna G

Last reported at 2017-Dec-11 01:47 UTC. Time now 2017-Dec-12 08:31 UTC.
Position N 51°01' W 005°50'.

Length 101 m; draft 6 m.

Type: Cargo ship. MMSI: 212075000.

Date/timePositionNaut miles runAvg speedWind from/ knotsBaromVisibWave heightAir tempDewpointWater temp
2017-Dec-11 01:47N 51°01' W 005°50'3 8.6
2017-Dec-11 01:27N 50°58' W 005°50'4 8.4
2017-Dec-11 00:57N 50°54' W 005°52'4 8.9
2017-Dec-11 00:30N 50°50' W 005°51'5 9.0
2017-Dec-10 23:59N 50°45' W 005°51'4 8.9
2017-Dec-10 23:31N 50°41' W 005°51'5 9.2
2017-Dec-10 23:00N 50°36' W 005°51'5 9.6
2017-Dec-10 22:29N 50°31' W 005°51'510.3
2017-Dec-10 22:00N 50°26' W 005°52'510.9
2017-Dec-10 21:30N 50°21' W 005°52'611.2
2017-Dec-10 20:59N 50°15' W 005°53'611.2
2017-Dec-10 20:29N 50°09' W 005°53'511.1
2017-Dec-10 20:00N 50°04' W 005°52'  
2017-Dec-08 15:48N 41°17' W 008°50'311.6
2017-Dec-08 15:30N 41°13' W 008°48'510.5
2017-Dec-08 15:00N 41°10' W 008°43'2 3.7
2017-Dec-08 14:27N 41°12' W 008°41'0 0.0
2017-Dec-08 14:00N 41°12' W 008°41'0 0.0
2017-Dec-08 13:27N 41°12' W 008°41'0 0.0
2017-Dec-08 13:00N 41°12' W 008°41'0 0.0
2017-Dec-08 12:30N 41°12' W 008°41'0 0.0
2017-Dec-08 12:00N 41°12' W 008°41'0 0.0
2017-Dec-08 11:30N 41°12' W 008°41'0 0.0
2017-Dec-08 11:00N 41°12' W 008°41'0 0.0
2017-Dec-08 10:30N 41°12' W 008°41'0 0.0
2017-Dec-08 10:00N 41°12' W 008°41'0 0.0
2017-Dec-08 09:30N 41°12' W 008°41'0 0.0
2017-Dec-08 08:57N 41°12' W 008°41'0 0.0
2017-Dec-08 08:30N 41°12' W 008°41'0 0.0
2017-Dec-08 08:00N 41°12' W 008°41'0 0.0
2017-Dec-08 07:30N 41°12' W 008°41'0 0.0
2017-Dec-08 07:00N 41°12' W 008°41'0 0.1
2017-Dec-08 06:30N 41°12' W 008°41'3 5.3
2017-Dec-08 06:00N 41°09' W 008°43'4 7.4
2017-Dec-08 05:30N 41°06' W 008°45'4 7.8
2017-Dec-08 05:00N 41°03' W 008°48'68 9.3
2017-Dec-07 21:40N 40°01' W 009°25'3 9.5
2017-Dec-07 21:23N 39°59' W 009°27'6 9.5
2017-Dec-07 20:42N 39°53' W 009°30'2 9.3
2017-Dec-07 20:30N 39°51' W 009°31'5 9.1
2017-Dec-07 19:58N 39°47' W 009°34'5 9.4
2017-Dec-07 19:24N 39°42' W 009°37'4 9.5
2017-Dec-07 18:59N 39°38' W 009°39'4 9.2
2017-Dec-07 18:30N 39°34' W 009°41'5 9.4
2017-Dec-07 18:00N 39°30' W 009°43'510.0
2017-Dec-07 17:31N 39°25' W 009°44'5 9.8
2017-Dec-07 17:00N 39°20' W 009°46'5 9.5
2017-Dec-07 16:30N 39°16' W 009°47'5 9.7
2017-Dec-07 16:01N 39°11' W 009°48'510.5
2017-Dec-07 15:30N 39°06' W 009°49'510.4
2017-Dec-07 15:00N 39°00' W 009°50'510.2
2017-Dec-07 14:30N 38°55' W 009°50'510.4
2017-Dec-07 14:00N 38°50' W 009°51'510.5
2017-Dec-07 13:30N 38°45' W 009°51'510.2
2017-Dec-07 13:00N 38°40' W 009°50'510.2
2017-Dec-07 12:30N 38°35' W 009°48'510.2
2017-Dec-07 12:00N 38°30' W 009°47'510.1
2017-Dec-07 11:30N 38°25' W 009°45'5 9.9
2017-Dec-07 11:00N 38°20' W 009°43'5 9.6
2017-Dec-07 10:30N 38°16' W 009°42'5 9.6
2017-Dec-07 10:00N 38°11' W 009°40'510.0
2017-Dec-07 09:30N 38°06' W 009°39'5 9.9
2017-Dec-07 09:00N 38°01' W 009°38'5 9.9
2017-Dec-07 08:30N 37°56' W 009°37'5 9.7
2017-Dec-07 08:00N 37°51' W 009°36'5 9.8
2017-Dec-07 07:30N 37°47' W 009°34'5 9.8
2017-Dec-07 07:00N 37°42' W 009°33'1410.4
2017-Dec-07 05:38N 37°28' W 009°28'510.4
2017-Dec-07 05:10N 37°23' W 009°27'210.4
2017-Dec-07 05:00N 37°22' W 009°26'44 9.6
2017-Dec-07 00:22N 36°43' W 008°58'410.8
2017-Dec-07 00:00N 36°44' W 008°53'511.0
2017-Dec-06 23:30N 36°45' W 008°47'511.0
2017-Dec-06 23:00N 36°45' W 008°40'510.8
2017-Dec-06 22:30N 36°46' W 008°33'510.8
2017-Dec-06 22:00N 36°47' W 008°27'611.0
2017-Dec-06 21:30N 36°48' W 008°20'611.2
2017-Dec-06 20:59N 36°49' W 008°13'  
2017-Dec-04 10:19N 41°12' W 008°41'0 0.0
2017-Dec-04 09:55N 41°12' W 008°41'0 0.0
2017-Dec-04 09:25N 41°12' W 008°41'0 0.0
2017-Dec-04 08:58N 41°12' W 008°41'0 0.0
2017-Dec-04 08:28N 41°12' W 008°41'0 0.0
2017-Dec-04 07:58N 41°12' W 008°41'0 0.0
2017-Dec-04 07:28N 41°12' W 008°41'0 0.0
2017-Dec-04 06:58N 41°12' W 008°41'0 0.0
2017-Dec-04 06:25N 41°12' W 008°41'0 0.0
2017-Dec-04 05:55N 41°12' W 008°41'0 0.0
2017-Dec-04 05:28N 41°12' W 008°41'0 0.0
2017-Dec-04 04:58N 41°12' W 008°41'0 0.0
2017-Dec-04 04:28N 41°12' W 008°41'0 0.0
2017-Dec-04 03:55N 41°12' W 008°41'0 0.0
2017-Dec-04 03:28N 41°12' W 008°41'0 0.0
2017-Dec-04 02:58N 41°12' W 008°41'0 0.0
2017-Dec-04 02:25N 41°12' W 008°41'0 0.0
2017-Dec-04 01:58N 41°12' W 008°41'0 0.0
2017-Dec-04 01:28N 41°12' W 008°41'0 0.6
2017-Dec-04 01:00N 41°12' W 008°41'2 4.5
2017-Dec-04 00:30N 41°10' W 008°43'2 3.3
2017-Dec-04 00:00N 41°09' W 008°44'3 5.3
2017-Dec-03 23:30N 41°10' W 008°48'3 5.7
2017-Dec-03 23:00N 41°11' W 008°51'3 4.9
2017-Dec-03 22:30N 41°12' W 008°54'  
Track history (hours):
 
Tides and Currents Weather Stations Pressure Air Temp Water Temp Dewpoint Dewpoint Depression Visibility Wind Speed Wind Dir Waves Ship Positions

Anna G

Last reported at 2017-Dec-11 01:47 UTC. Time now 2017-Dec-12 08:31 UTC.
Position N 51°01' W 005°50'.

Length 101 m; draft 6 m.

Type: Cargo ship. MMSI: 212075000.

Date/timePositionNaut miles runAvg speedWind from/ knotsBaromVisibWave heightAir tempDewpointWater temp
2017-Dec-11 01:47N 51°01' W 005°50'3 8.6
2017-Dec-11 01:27N 50°58' W 005°50'4 8.4
2017-Dec-11 00:57N 50°54' W 005°52'4 8.9
2017-Dec-11 00:30N 50°50' W 005°51'5 9.0
2017-Dec-10 23:59N 50°45' W 005°51'4 8.9
2017-Dec-10 23:31N 50°41' W 005°51'5 9.2
2017-Dec-10 23:00N 50°36' W 005°51'5 9.6
2017-Dec-10 22:29N 50°31' W 005°51'510.3
2017-Dec-10 22:00N 50°26' W 005°52'510.9
2017-Dec-10 21:30N 50°21' W 005°52'611.2
2017-Dec-10 20:59N 50°15' W 005°53'611.2
2017-Dec-10 20:29N 50°09' W 005°53'511.1
2017-Dec-10 20:00N 50°04' W 005°52'  
2017-Dec-08 15:48N 41°17' W 008°50'311.6
2017-Dec-08 15:30N 41°13' W 008°48'510.5
2017-Dec-08 15:00N 41°10' W 008°43'2 3.7
2017-Dec-08 14:27N 41°12' W 008°41'0 0.0
2017-Dec-08 14:00N 41°12' W 008°41'0 0.0
2017-Dec-08 13:27N 41°12' W 008°41'0 0.0
2017-Dec-08 13:00N 41°12' W 008°41'0 0.0
2017-Dec-08 12:30N 41°12' W 008°41'0 0.0
2017-Dec-08 12:00N 41°12' W 008°41'0 0.0
2017-Dec-08 11:30N 41°12' W 008°41'0 0.0
2017-Dec-08 11:00N 41°12' W 008°41'0 0.0
2017-Dec-08 10:30N 41°12' W 008°41'0 0.0
2017-Dec-08 10:00N 41°12' W 008°41'0 0.0
2017-Dec-08 09:30N 41°12' W 008°41'0 0.0
2017-Dec-08 08:57N 41°12' W 008°41'0 0.0
2017-Dec-08 08:30N 41°12' W 008°41'0 0.0
2017-Dec-08 08:00N 41°12' W 008°41'0 0.0
2017-Dec-08 07:30N 41°12' W 008°41'0 0.0
2017-Dec-08 07:00N 41°12' W 008°41'0 0.1
2017-Dec-08 06:30N 41°12' W 008°41'3 5.3
2017-Dec-08 06:00N 41°09' W 008°43'4 7.4
2017-Dec-08 05:30N 41°06' W 008°45'4 7.8
2017-Dec-08 05:00N 41°03' W 008°48'68 9.3
2017-Dec-07 21:40N 40°01' W 009°25'3 9.5
2017-Dec-07 21:23N 39°59' W 009°27'6 9.5
2017-Dec-07 20:42N 39°53' W 009°30'2 9.3
2017-Dec-07 20:30N 39°51' W 009°31'5 9.1
2017-Dec-07 19:58N 39°47' W 009°34'5 9.4
2017-Dec-07 19:24N 39°42' W 009°37'4 9.5
2017-Dec-07 18:59N 39°38' W 009°39'4 9.2
2017-Dec-07 18:30N 39°34' W 009°41'5 9.4
2017-Dec-07 18:00N 39°30' W 009°43'510.0
2017-Dec-07 17:31N 39°25' W 009°44'5 9.8
2017-Dec-07 17:00N 39°20' W 009°46'5 9.5
2017-Dec-07 16:30N 39°16' W 009°47'5 9.7
2017-Dec-07 16:01N 39°11' W 009°48'510.5
2017-Dec-07 15:30N 39°06' W 009°49'510.4
2017-Dec-07 15:00N 39°00' W 009°50'510.2
2017-Dec-07 14:30N 38°55' W 009°50'510.4
2017-Dec-07 14:00N 38°50' W 009°51'510.5
2017-Dec-07 13:30N 38°45' W 009°51'510.2
2017-Dec-07 13:00N 38°40' W 009°50'510.2
2017-Dec-07 12:30N 38°35' W 009°48'510.2
2017-Dec-07 12:00N 38°30' W 009°47'510.1
2017-Dec-07 11:30N 38°25' W 009°45'5 9.9
2017-Dec-07 11:00N 38°20' W 009°43'5 9.6
2017-Dec-07 10:30N 38°16' W 009°42'5 9.6
2017-Dec-07 10:00N 38°11' W 009°40'510.0
2017-Dec-07 09:30N 38°06' W 009°39'5 9.9
2017-Dec-07 09:00N 38°01' W 009°38'5 9.9
2017-Dec-07 08:30N 37°56' W 009°37'5 9.7
2017-Dec-07 08:00N 37°51' W 009°36'5 9.8
2017-Dec-07 07:30N 37°47' W 009°34'5 9.8
2017-Dec-07 07:00N 37°42' W 009°33'1410.4
2017-Dec-07 05:38N 37°28' W 009°28'510.4
2017-Dec-07 05:10N 37°23' W 009°27'210.4
2017-Dec-07 05:00N 37°22' W 009°26'44 9.6
2017-Dec-07 00:22N 36°43' W 008°58'410.8
2017-Dec-07 00:00N 36°44' W 008°53'511.0
2017-Dec-06 23:30N 36°45' W 008°47'511.0
2017-Dec-06 23:00N 36°45' W 008°40'510.8
2017-Dec-06 22:30N 36°46' W 008°33'510.8
2017-Dec-06 22:00N 36°47' W 008°27'611.0
2017-Dec-06 21:30N 36°48' W 008°20'611.2
2017-Dec-06 20:59N 36°49' W 008°13'  
2017-Dec-04 10:19N 41°12' W 008°41'0 0.0
2017-Dec-04 09:55N 41°12' W 008°41'0 0.0
2017-Dec-04 09:25N 41°12' W 008°41'0 0.0
2017-Dec-04 08:58N 41°12' W 008°41'0 0.0
2017-Dec-04 08:28N 41°12' W 008°41'0 0.0
2017-Dec-04 07:58N 41°12' W 008°41'0 0.0
2017-Dec-04 07:28N 41°12' W 008°41'0 0.0
2017-Dec-04 06:58N 41°12' W 008°41'0 0.0
2017-Dec-04 06:25N 41°12' W 008°41'0 0.0
2017-Dec-04 05:55N 41°12' W 008°41'0 0.0
2017-Dec-04 05:28N 41°12' W 008°41'0 0.0
2017-Dec-04 04:58N 41°12' W 008°41'0 0.0
2017-Dec-04 04:28N 41°12' W 008°41'0 0.0
2017-Dec-04 03:55N 41°12' W 008°41'0 0.0
2017-Dec-04 03:28N 41°12' W 008°41'0 0.0
2017-Dec-04 02:58N 41°12' W 008°41'0 0.0
2017-Dec-04 02:25N 41°12' W 008°41'0 0.0
2017-Dec-04 01:58N 41°12' W 008°41'0 0.0
2017-Dec-04 01:28N 41°12' W 008°41'0 0.6
2017-Dec-04 01:00N 41°12' W 008°41'2 4.5
2017-Dec-04 00:30N 41°10' W 008°43'2 3.3
2017-Dec-04 00:00N 41°09' W 008°44'3 5.3
2017-Dec-03 23:30N 41°10' W 008°48'3 5.7
2017-Dec-03 23:00N 41°11' W 008°51'3 4.9
2017-Dec-03 22:30N 41°12' W 008°54'  

Dump ship's entire track history